createdAt,value
2018-12-22T00:00:12.031Z,0
2018-12-22T00:01:12.025Z,0
2018-12-22T00:02:12.014Z,0
2018-12-22T00:03:12.020Z,0
2018-12-22T00:04:11.988Z,0
2018-12-22T00:05:11.982Z,0
2018-12-22T00:06:11.975Z,0
2018-12-22T00:07:12.222Z,0
2018-12-22T00:08:11.954Z,0
2018-12-22T00:09:11.944Z,0
2018-12-22T00:10:11.934Z,0
2018-12-22T00:11:11.925Z,0
2018-12-22T00:12:11.918Z,0
2018-12-22T00:13:11.915Z,0
2018-12-22T00:14:11.902Z,0
2018-12-22T00:15:11.994Z,0
2018-12-22T00:16:11.973Z,0
2018-12-22T00:17:11.873Z,0
2018-12-22T00:18:11.861Z,0
2018-12-22T00:19:11.850Z,0
2018-12-22T00:20:11.842Z,0
2018-12-22T00:21:11.835Z,0
2018-12-22T00:22:11.824Z,0
2018-12-22T00:23:11.817Z,0
2018-12-22T00:24:11.806Z,0
2018-12-22T00:25:11.791Z,0
2018-12-22T00:26:11.783Z,0
2018-12-22T00:27:11.771Z,0
2018-12-22T00:28:11.772Z,0
2018-12-22T00:29:11.756Z,0
2018-12-22T00:30:11.745Z,0
2018-12-22T00:31:11.736Z,0
2018-12-22T00:32:11.723Z,0
2018-12-22T00:33:11.716Z,0
2018-12-22T00:34:11.706Z,0
2018-12-22T00:35:11.699Z,0
2018-12-22T00:36:11.769Z,0
2018-12-22T00:37:11.717Z,0
2018-12-22T00:38:11.965Z,0
2018-12-22T00:39:11.659Z,0
2018-12-22T00:40:11.649Z,0
2018-12-22T00:41:11.636Z,0
2018-12-22T00:42:11.627Z,0
2018-12-22T00:43:11.627Z,0
2018-12-22T00:44:11.614Z,0
2018-12-22T00:45:11.596Z,0
2018-12-22T00:46:11.589Z,0
2018-12-22T00:47:11.581Z,0
2018-12-22T00:48:11.567Z,0
2018-12-22T00:49:11.671Z,0
2018-12-22T00:50:11.619Z,0
2018-12-22T00:51:11.536Z,0
2018-12-22T00:52:11.533Z,0
2018-12-22T00:53:11.529Z,0
2018-12-22T00:54:11.516Z,0
2018-12-22T00:55:11.501Z,0
2018-12-22T00:56:11.490Z,0
2018-12-22T00:57:11.486Z,0
2018-12-22T00:58:11.479Z,0
2018-12-22T00:59:11.454Z,0
2018-12-22T01:00:11.449Z,0
2018-12-22T01:01:11.468Z,0
2018-12-22T01:02:11.523Z,0
2018-12-22T01:03:11.415Z,0
2018-12-22T01:04:11.410Z,0
2018-12-22T01:05:11.402Z,0
2018-12-22T01:06:11.385Z,0
2018-12-22T01:07:11.386Z,0
2018-12-22T01:08:11.368Z,0
2018-12-22T01:09:11.708Z,0
2018-12-22T01:10:11.343Z,0
2018-12-22T01:11:11.335Z,0
2018-12-22T01:12:11.332Z,0
2018-12-22T01:13:11.317Z,0
2018-12-22T01:14:11.304Z,0
2018-12-22T01:15:11.297Z,0
2018-12-22T01:16:11.284Z,0
2018-12-22T01:17:11.274Z,0
2018-12-22T01:18:11.266Z,0
2018-12-22T01:19:11.249Z,0
2018-12-22T01:20:11.243Z,0
2018-12-22T01:21:11.230Z,0
2018-12-22T01:22:11.230Z,0
2018-12-22T01:23:11.210Z,0
2018-12-22T01:24:11.198Z,0
2018-12-22T01:25:11.186Z,0
2018-12-22T01:26:11.177Z,0
2018-12-22T01:27:11.172Z,0
2018-12-22T01:28:11.158Z,0
2018-12-22T01:29:11.146Z,0
2018-12-22T01:30:11.147Z,0
2018-12-22T01:31:11.137Z,0
2018-12-22T01:32:11.112Z,0
2018-12-22T01:33:11.105Z,0
2018-12-22T01:34:11.100Z,0
2018-12-22T01:35:11.081Z,0
2018-12-22T01:36:11.075Z,0
2018-12-22T01:37:11.062Z,0
2018-12-22T01:38:11.052Z,0
2018-12-22T01:39:11.052Z,0
2018-12-22T01:40:11.281Z,0
2018-12-22T01:41:11.023Z,0
2018-12-22T01:42:11.018Z,0
2018-12-22T01:43:11.004Z,0
2018-12-22T01:44:10.989Z,0
2018-12-22T01:45:10.986Z,0
2018-12-22T01:46:10.973Z,0
2018-12-22T01:47:10.962Z,0
2018-12-22T01:48:10.949Z,0
2018-12-22T01:49:10.937Z,0
2018-12-22T01:50:10.926Z,0
2018-12-22T01:51:10.915Z,0
2018-12-22T01:52:10.910Z,0
2018-12-22T01:53:10.895Z,0
2018-12-22T01:54:10.887Z,0
2018-12-22T01:55:10.881Z,0
2018-12-22T01:56:10.866Z,0
2018-12-22T01:57:10.864Z,0
2018-12-22T01:58:10.842Z,0
2018-12-22T01:59:10.831Z,0
2018-12-22T02:00:10.837Z,0
2018-12-22T02:01:10.869Z,0
2018-12-22T02:02:10.804Z,0
2018-12-22T02:03:10.794Z,0
2018-12-22T02:04:10.786Z,0
2018-12-22T02:05:10.970Z,0
2018-12-22T02:06:10.762Z,0
2018-12-22T02:07:10.753Z,0
2018-12-22T02:08:10.504Z,0
2018-12-22T02:09:10.737Z,0
2018-12-22T02:10:10.724Z,0
2018-12-22T02:11:10.962Z,0
2018-12-22T02:12:10.700Z,0
2018-12-22T02:13:10.690Z,0
2018-12-22T02:14:10.681Z,0
2018-12-22T02:15:10.511Z,0
2018-12-22T02:16:10.677Z,0
2018-12-22T02:17:10.649Z,0
2018-12-22T02:18:10.638Z,0
2018-12-22T02:19:10.627Z,0
2018-12-22T02:20:10.621Z,0
2018-12-22T02:21:10.610Z,0
2018-12-22T02:22:10.601Z,0
2018-12-22T02:23:10.590Z,0
2018-12-22T02:24:10.576Z,0
2018-12-22T02:25:10.566Z,0
2018-12-22T02:26:10.557Z,0
2018-12-22T02:27:10.546Z,0
2018-12-22T02:28:10.535Z,0
2018-12-22T02:29:10.529Z,0
2018-12-22T02:30:10.533Z,0
2018-12-22T02:31:10.524Z,0
2018-12-22T02:32:10.538Z,0
2018-12-22T02:33:10.507Z,0
2018-12-22T02:34:10.485Z,0
2018-12-22T02:35:10.480Z,0
2018-12-22T02:36:10.461Z,0
2018-12-22T02:37:10.454Z,0
2018-12-22T02:38:10.434Z,0
2018-12-22T02:39:10.425Z,0
2018-12-22T02:40:10.418Z,0
2018-12-22T02:41:10.405Z,0
2018-12-22T02:42:10.397Z,0
2018-12-22T02:43:10.399Z,0
2018-12-22T02:44:10.379Z,0
2018-12-22T02:45:10.439Z,0
2018-12-22T02:46:10.369Z,0
2018-12-22T02:47:10.339Z,0
2018-12-22T02:48:10.328Z,0
2018-12-22T02:49:10.320Z,0
2018-12-22T02:50:10.320Z,0
2018-12-22T02:51:10.295Z,0
2018-12-22T02:52:10.287Z,0
2018-12-22T02:53:10.294Z,0
2018-12-22T02:54:10.261Z,0
2018-12-22T02:55:10.271Z,0
2018-12-22T02:56:10.246Z,0
2018-12-22T02:57:10.234Z,0
2018-12-22T02:58:10.231Z,0
2018-12-22T02:59:13.506Z,0
2018-12-22T03:00:10.211Z,0
2018-12-22T03:01:10.200Z,0
2018-12-22T03:02:10.182Z,0
2018-12-22T03:03:10.176Z,0
2018-12-22T03:04:10.164Z,0
2018-12-22T03:05:10.164Z,0
2018-12-22T03:06:10.151Z,0
2018-12-22T03:07:10.136Z,0
2018-12-22T03:08:10.125Z,0
2018-12-22T03:09:10.120Z,0
2018-12-22T03:10:10.102Z,0
2018-12-22T03:11:10.092Z,0
2018-12-22T03:12:10.087Z,0
2018-12-22T03:13:10.079Z,0
2018-12-22T03:14:10.312Z,0
2018-12-22T03:15:10.046Z,0
2018-12-22T03:16:10.040Z,0
2018-12-22T03:17:10.015Z,0
2018-12-22T03:18:10.011Z,0
2018-12-22T03:19:10.000Z,0
2018-12-22T03:20:09.998Z,0
2018-12-22T03:21:09.978Z,0
2018-12-22T03:22:09.969Z,0
2018-12-22T03:23:09.951Z,0
2018-12-22T03:24:09.952Z,0
2018-12-22T03:25:10.048Z,0
2018-12-22T03:26:09.923Z,0
2018-12-22T03:27:09.915Z,0
2018-12-22T03:28:09.904Z,0
2018-12-22T03:29:18.151Z,0
2018-12-22T03:30:09.891Z,0
2018-12-22T03:31:09.891Z,0
2018-12-22T03:32:09.904Z,0
2018-12-22T03:33:09.867Z,0
2018-12-22T03:34:09.837Z,0
2018-12-22T03:35:09.838Z,0
2018-12-22T03:36:09.820Z,0
2018-12-22T03:37:09.800Z,0
2018-12-22T03:38:09.795Z,0
2018-12-22T03:39:09.791Z,0
2018-12-22T03:40:09.779Z,0
2018-12-22T03:41:09.765Z,0
2018-12-22T03:42:09.768Z,0
2018-12-22T03:43:09.737Z,0
2018-12-22T03:44:09.727Z,0
2018-12-22T03:45:10.083Z,0
2018-12-22T03:46:09.712Z,0
2018-12-22T03:47:09.702Z,0
2018-12-22T03:48:09.689Z,0
2018-12-22T03:49:09.674Z,0
2018-12-22T03:50:09.660Z,0
2018-12-22T03:51:09.666Z,0
2018-12-22T03:52:09.645Z,0
2018-12-22T03:53:09.647Z,0
2018-12-22T03:54:09.624Z,0
2018-12-22T03:55:09.616Z,0
2018-12-22T03:56:09.606Z,0
2018-12-22T03:57:09.692Z,0
2018-12-22T03:58:09.581Z,0
2018-12-22T03:59:09.564Z,0
2018-12-22T04:00:09.563Z,0
2018-12-22T04:01:09.560Z,0
2018-12-22T04:02:09.535Z,0
2018-12-22T04:03:11.865Z,0
2018-12-22T04:04:09.513Z,0
2018-12-22T04:05:09.516Z,0
2018-12-22T04:06:09.492Z,0
2018-12-22T04:07:09.484Z,0
2018-12-22T04:08:09.487Z,0
2018-12-22T04:09:11.595Z,0
2018-12-22T04:10:09.208Z,0
2018-12-22T04:11:09.442Z,0
2018-12-22T04:12:09.440Z,0
2018-12-22T04:13:09.420Z,0
2018-12-22T04:14:09.418Z,0
2018-12-22T04:15:09.396Z,0
2018-12-22T04:16:09.651Z,0
2018-12-22T04:17:09.389Z,0
2018-12-22T04:18:09.364Z,0
2018-12-22T04:19:09.369Z,0
2018-12-22T04:20:09.345Z,0
2018-12-22T04:21:09.330Z,0
2018-12-22T04:22:09.332Z,0
2018-12-22T04:23:09.311Z,0
2018-12-22T04:24:09.309Z,0
2018-12-22T04:25:09.309Z,0
2018-12-22T04:26:09.282Z,0
2018-12-22T04:27:09.262Z,0
2018-12-22T04:28:09.257Z,0
2018-12-22T04:29:09.143Z,0
2018-12-22T04:30:09.006Z,0
2018-12-22T04:31:09.231Z,0
2018-12-22T04:32:08.979Z,0
2018-12-22T04:33:09.214Z,0
2018-12-22T04:34:09.198Z,0
2018-12-22T04:35:09.190Z,0
2018-12-22T04:36:09.180Z,0
2018-12-22T04:37:09.171Z,0
2018-12-22T04:38:09.168Z,0
2018-12-22T04:39:09.159Z,0
2018-12-22T04:40:09.139Z,0
2018-12-22T04:41:09.118Z,0
2018-12-22T04:42:09.110Z,0
2018-12-22T04:43:09.126Z,0
2018-12-22T04:44:09.093Z,0
2018-12-22T04:45:09.087Z,0
2018-12-22T04:46:09.070Z,0
2018-12-22T04:47:09.308Z,0
2018-12-22T04:48:09.056Z,0
2018-12-22T04:49:09.041Z,0
2018-12-22T04:50:09.052Z,0
2018-12-22T04:51:09.013Z,0
2018-12-22T04:52:09.012Z,0
2018-12-22T04:53:09.028Z,0
2018-12-22T04:54:08.731Z,0
2018-12-22T04:55:08.981Z,0
2018-12-22T04:56:08.970Z,0
2018-12-22T04:57:08.947Z,0
2018-12-22T04:58:08.940Z,0
2018-12-22T04:59:09.057Z,0
2018-12-22T05:00:08.924Z,0
2018-12-22T05:01:08.903Z,0
2018-12-22T05:02:08.905Z,0
2018-12-22T05:03:08.887Z,0
2018-12-22T05:04:08.880Z,0
2018-12-22T05:05:08.859Z,0
2018-12-22T05:06:08.881Z,0
2018-12-22T05:07:08.847Z,0
2018-12-22T05:08:08.837Z,0
2018-12-22T05:09:08.831Z,0
2018-12-22T05:10:08.806Z,0
2018-12-22T05:11:08.565Z,0
2018-12-22T05:12:08.796Z,0
2018-12-22T05:13:08.779Z,0
2018-12-22T05:14:08.787Z,0
2018-12-22T05:15:08.775Z,0
2018-12-22T05:16:08.750Z,0
2018-12-22T05:17:08.739Z,0
2018-12-22T05:18:08.971Z,0
2018-12-22T05:19:08.712Z,0
2018-12-22T05:20:08.707Z,0
2018-12-22T05:21:08.697Z,0
2018-12-22T05:22:08.683Z,0
2018-12-22T05:23:08.679Z,0
2018-12-22T05:24:08.663Z,0
2018-12-22T05:25:08.664Z,0
2018-12-22T05:26:08.641Z,0
2018-12-22T05:27:08.383Z,0
2018-12-22T05:28:08.616Z,0
2018-12-22T05:29:08.606Z,0
2018-12-22T05:30:08.601Z,0
2018-12-22T05:31:08.584Z,0
2018-12-22T05:32:08.624Z,0
2018-12-22T05:33:08.562Z,0
2018-12-22T05:34:08.670Z,0
2018-12-22T05:35:08.561Z,0
2018-12-22T05:36:08.538Z,0
2018-12-22T05:37:08.524Z,0
2018-12-22T05:38:08.512Z,0
2018-12-22T05:39:08.499Z,0
2018-12-22T05:40:08.550Z,0
2018-12-22T05:41:08.477Z,0
2018-12-22T05:42:08.482Z,0
2018-12-22T05:43:08.463Z,0
2018-12-22T05:44:08.456Z,0
2018-12-22T05:45:08.432Z,0
2018-12-22T05:46:08.422Z,0
2018-12-22T05:47:08.416Z,0
2018-12-22T05:48:08.414Z,0
2018-12-22T05:49:08.398Z,0
2018-12-22T05:50:08.387Z,0
2018-12-22T05:51:08.371Z,0
2018-12-22T05:52:08.360Z,0
2018-12-22T05:53:08.348Z,0
2018-12-22T05:54:08.341Z,0
2018-12-22T05:55:08.338Z,0
2018-12-22T05:56:08.324Z,0
2018-12-22T05:57:08.313Z,0
2018-12-22T05:58:08.300Z,0
2018-12-22T05:59:08.287Z,0
2018-12-22T06:00:08.282Z,0
2018-12-22T06:01:08.265Z,0
2018-12-22T06:02:08.320Z,0
2018-12-22T06:03:08.254Z,0
2018-12-22T06:04:08.234Z,0
2018-12-22T06:05:08.223Z,0
2018-12-22T06:06:08.215Z,0
2018-12-22T06:07:08.200Z,0
2018-12-22T06:08:08.195Z,0
2018-12-22T06:09:08.180Z,0
2018-12-22T06:10:08.168Z,0
2018-12-22T06:11:08.230Z,0
2018-12-22T06:12:08.162Z,0
2018-12-22T06:13:08.148Z,0
2018-12-22T06:14:08.142Z,0
2018-12-22T06:15:08.127Z,0
2018-12-22T06:16:08.110Z,0
2018-12-22T06:17:08.093Z,0
2018-12-22T06:18:08.086Z,0
2018-12-22T06:19:08.081Z,0
2018-12-22T06:20:08.060Z,0
2018-12-22T06:21:08.315Z,0
2018-12-22T06:22:08.053Z,0
2018-12-22T06:23:08.030Z,0
2018-12-22T06:24:08.024Z,0
2018-12-22T06:25:08.017Z,0
2018-12-22T06:26:08.003Z,0
2018-12-22T06:27:07.987Z,0
2018-12-22T06:28:07.976Z,0
2018-12-22T06:29:07.968Z,0
2018-12-22T06:30:16.186Z,0
2018-12-22T06:31:07.948Z,0
2018-12-22T06:32:07.937Z,0
2018-12-22T06:33:07.928Z,0
2018-12-22T06:34:07.911Z,0
2018-12-22T06:35:07.900Z,0
2018-12-22T06:36:07.889Z,0
2018-12-22T06:37:07.880Z,0
2018-12-22T06:38:07.906Z,0
2018-12-22T06:39:07.871Z,0
2018-12-22T06:40:07.722Z,0
2018-12-22T06:41:07.838Z,0
2018-12-22T06:42:07.832Z,0
2018-12-22T06:43:07.817Z,4
2018-12-22T06:44:07.805Z,4
2018-12-22T06:45:07.804Z,0
2018-12-22T06:46:07.787Z,4
2018-12-22T06:47:07.775Z,8
2018-12-22T06:48:07.771Z,8
2018-12-22T06:49:07.838Z,8
2018-12-22T06:50:07.745Z,8
2018-12-22T06:51:07.734Z,8
2018-12-22T06:52:07.976Z,12
2018-12-22T06:53:07.708Z,12
2018-12-22T06:54:07.706Z,12
2018-12-22T06:55:07.454Z,16
2018-12-22T06:56:07.682Z,24
2018-12-22T06:57:07.679Z,24
2018-12-22T06:58:07.652Z,28
2018-12-22T06:59:07.641Z,36
2018-12-22T07:00:07.654Z,40
2018-12-22T07:01:07.628Z,48
2018-12-22T07:02:07.610Z,56
2018-12-22T07:03:07.599Z,64
2018-12-22T07:04:07.595Z,72
2018-12-22T07:05:09.654Z,76
2018-12-22T07:06:07.570Z,72
2018-12-22T07:07:07.560Z,76
2018-12-22T07:08:07.548Z,84
2018-12-22T07:09:07.534Z,88
2018-12-22T07:10:07.746Z,100
2018-12-22T07:11:07.519Z,104
2018-12-22T07:12:07.556Z,116
2018-12-22T07:13:07.795Z,116
2018-12-22T07:14:07.484Z,116
2018-12-22T07:15:07.475Z,116
2018-12-22T07:16:09.763Z,120
2018-12-22T07:17:07.455Z,136
2018-12-22T07:18:07.441Z,164
2018-12-22T07:19:07.424Z,164
2018-12-22T07:20:07.524Z,176
2018-12-22T07:21:07.403Z,204
2018-12-22T07:22:07.401Z,260
2018-12-22T07:23:07.638Z,292
2018-12-22T07:24:07.130Z,308
2018-12-22T07:25:07.370Z,328
2018-12-22T07:26:07.350Z,368
2018-12-22T07:27:07.341Z,400
2018-12-22T07:28:07.332Z,428
2018-12-22T07:29:07.319Z,448
2018-12-22T07:30:07.308Z,464
2018-12-22T07:31:07.314Z,480
2018-12-22T07:32:07.292Z,480
2018-12-22T07:33:07.276Z,500
2018-12-22T07:34:07.261Z,580
2018-12-22T07:35:07.385Z,656
2018-12-22T07:36:07.246Z,744
2018-12-22T07:37:07.234Z,808
2018-12-22T07:38:07.224Z,852
2018-12-22T07:39:07.215Z,904
2018-12-22T07:40:07.392Z,952
2018-12-22T07:41:07.191Z,988
2018-12-22T07:42:07.181Z,1036
2018-12-22T07:43:07.174Z,1084
2018-12-22T07:44:07.166Z,1140
2018-12-22T07:45:07.151Z,1188
2018-12-22T07:46:07.143Z,1232
2018-12-22T07:47:07.131Z,1288
2018-12-22T07:48:07.115Z,1340
2018-12-22T07:49:07.109Z,1372
2018-12-22T07:50:07.093Z,1392
2018-12-22T07:51:07.081Z,1404
2018-12-22T07:52:07.119Z,1420
2018-12-22T07:53:07.060Z,1416
2018-12-22T07:54:07.300Z,1444
2018-12-22T07:55:07.039Z,1468
2018-12-22T07:56:07.026Z,1460
2018-12-22T07:57:07.015Z,1472
2018-12-22T07:58:07.012Z,1432
2018-12-22T07:59:06.997Z,1392
2018-12-22T08:00:06.982Z,1340
2018-12-22T08:01:06.974Z,1332
2018-12-22T08:02:06.965Z,1320
2018-12-22T08:03:06.973Z,1280
2018-12-22T08:04:06.936Z,1264
2018-12-22T08:05:07.024Z,1280
2018-12-22T08:06:06.921Z,1348
2018-12-22T08:07:06.913Z,1460
2018-12-22T08:08:06.894Z,1508
2018-12-22T08:09:06.886Z,1584
2018-12-22T08:10:06.879Z,1680
2018-12-22T08:11:06.867Z,1812
2018-12-22T08:12:06.869Z,1876
2018-12-22T08:13:06.937Z,1888
2018-12-22T08:14:06.830Z,1956
2018-12-22T08:15:06.577Z,2048
2018-12-22T08:16:06.820Z,2084
2018-12-22T08:17:06.799Z,2164
2018-12-22T08:18:06.797Z,2296
2018-12-22T08:19:06.897Z,2488
2018-12-22T08:20:06.760Z,2592
2018-12-22T08:21:06.753Z,2660
2018-12-22T08:22:08.468Z,2732
2018-12-22T08:23:06.734Z,2832
2018-12-22T08:24:06.716Z,2752
2018-12-22T08:25:06.970Z,2840
2018-12-22T08:26:06.693Z,2840
2018-12-22T08:27:06.691Z,2852
2018-12-22T08:28:06.435Z,2852
2018-12-22T08:29:06.668Z,2868
2018-12-22T08:30:06.656Z,2912
2018-12-22T08:31:06.649Z,2904
2018-12-22T08:32:06.636Z,2828
2018-12-22T08:33:06.619Z,2680
2018-12-22T08:34:06.614Z,2396
2018-12-22T08:35:06.605Z,2144
2018-12-22T08:36:06.606Z,1960
2018-12-22T08:37:06.580Z,1840
2018-12-22T08:38:06.582Z,1864
2018-12-22T08:39:06.560Z,1952
2018-12-22T08:40:06.553Z,2040
2018-12-22T08:41:06.601Z,2004
2018-12-22T08:42:06.535Z,2012
2018-12-22T08:43:06.515Z,1988
2018-12-22T08:44:06.264Z,2104
2018-12-22T08:45:06.493Z,2168
2018-12-22T08:46:06.488Z,2136
2018-12-22T08:47:06.483Z,2372
2018-12-22T08:48:06.462Z,2632
2018-12-22T08:49:06.452Z,2608
2018-12-22T08:50:14.070Z,2284
2018-12-22T08:51:07.550Z,2272
2018-12-22T08:52:06.423Z,2172
2018-12-22T08:53:06.414Z,1864
2018-12-22T08:54:06.401Z,1992
2018-12-22T08:55:06.392Z,2364
2018-12-22T08:56:06.383Z,2620
2018-12-22T08:57:06.373Z,2552
2018-12-22T08:58:06.361Z,2352
2018-12-22T08:59:06.363Z,2124
2018-12-22T09:00:06.338Z,2260
2018-12-22T09:01:06.331Z,2684
2018-12-22T09:02:06.322Z,3160
2018-12-22T09:03:06.310Z,3436
2018-12-22T09:04:06.298Z,3796
2018-12-22T09:05:06.292Z,4108
2018-12-22T09:06:06.278Z,3748
2018-12-22T09:07:06.268Z,2876
2018-12-22T09:08:06.325Z,2704
2018-12-22T09:09:06.245Z,3184
2018-12-22T09:10:06.281Z,3596
2018-12-22T09:11:06.225Z,3972
2018-12-22T09:12:06.224Z,4072
2018-12-22T09:13:06.203Z,3744
2018-12-22T09:14:06.197Z,3380
2018-12-22T09:15:06.185Z,2684
2018-12-22T09:16:06.186Z,1980
2018-12-22T09:17:06.417Z,1728
2018-12-22T09:18:06.156Z,2516
2018-12-22T09:19:06.149Z,2664
2018-12-22T09:20:06.135Z,2132
2018-12-22T09:21:06.127Z,2060
2018-12-22T09:22:06.121Z,1996
2018-12-22T09:23:06.113Z,2620
2018-12-22T09:24:06.100Z,3152
2018-12-22T09:25:05.843Z,3684
2018-12-22T09:26:08.382Z,4012
2018-12-22T09:27:06.064Z,3836
2018-12-22T09:28:06.061Z,3648
2018-12-22T09:29:06.045Z,3416
2018-12-22T09:30:06.060Z,3580
2018-12-22T09:31:08.205Z,3784
2018-12-22T09:32:06.018Z,3748
2018-12-22T09:33:06.012Z,3576
2018-12-22T09:34:13.176Z,3380
2018-12-22T09:35:05.991Z,3216
2018-12-22T09:36:06.053Z,3192
2018-12-22T09:37:06.949Z,2760
2018-12-22T09:38:05.966Z,1748
2018-12-22T09:39:05.960Z,972
2018-12-22T09:40:05.957Z,788
2018-12-22T09:41:05.932Z,852
2018-12-22T09:42:05.915Z,1172
2018-12-22T09:43:05.914Z,1604
2018-12-22T09:44:05.895Z,2020
2018-12-22T09:45:05.884Z,2164
2018-12-22T09:46:05.875Z,1952
2018-12-22T09:47:05.868Z,2068
2018-12-22T09:48:05.866Z,2192
2018-12-22T09:49:05.855Z,2048
2018-12-22T09:50:05.916Z,1852
2018-12-22T09:51:05.828Z,1636
2018-12-22T09:52:05.815Z,1660
2018-12-22T09:53:09.988Z,1908
2018-12-22T09:54:05.925Z,2172
2018-12-22T09:55:05.791Z,2596
2018-12-22T09:56:05.774Z,2772
2018-12-22T09:57:05.764Z,2924
2018-12-22T09:58:05.761Z,3304
2018-12-22T09:59:06.514Z,3316
2018-12-22T10:00:05.730Z,2752
2018-12-22T10:01:13.969Z,2236
2018-12-22T10:02:05.713Z,1940
2018-12-22T10:03:05.700Z,1740
2018-12-22T10:04:05.696Z,1736
2018-12-22T10:05:05.678Z,1588
2018-12-22T10:06:05.672Z,1640
2018-12-22T10:07:05.662Z,1724
2018-12-22T10:08:05.674Z,1820
2018-12-22T10:09:05.642Z,2404
2018-12-22T10:10:05.630Z,3196
2018-12-22T10:11:05.620Z,3628
2018-12-22T10:12:05.609Z,3760
2018-12-22T10:13:05.597Z,3700
2018-12-22T10:14:05.589Z,3792
2018-12-22T10:15:05.578Z,3972
2018-12-22T10:16:05.636Z,4088
2018-12-22T10:17:07.395Z,3956
2018-12-22T10:18:05.557Z,3936
2018-12-22T10:19:05.541Z,3336
2018-12-22T10:20:05.562Z,3060
2018-12-22T10:21:05.519Z,3504
2018-12-22T10:22:05.509Z,3564
2018-12-22T10:23:05.501Z,3548
2018-12-22T10:24:05.494Z,3612
2018-12-22T10:25:05.612Z,3600
2018-12-22T10:26:05.478Z,3616
2018-12-22T10:27:05.462Z,3764
2018-12-22T10:28:05.453Z,3636
2018-12-22T10:29:05.439Z,3168
2018-12-22T10:30:05.694Z,3392
2018-12-22T10:31:05.419Z,3596
2018-12-22T10:32:05.412Z,3400
2018-12-22T10:33:05.395Z,2964
2018-12-22T10:34:05.394Z,2272
2018-12-22T10:35:05.379Z,1932
2018-12-22T10:36:05.370Z,1780
2018-12-22T10:37:05.361Z,1756
2018-12-22T10:38:05.353Z,1528
2018-12-22T10:39:05.340Z,1428
2018-12-22T10:40:05.332Z,1444
2018-12-22T10:41:05.325Z,1476
2018-12-22T10:42:05.067Z,1392
2018-12-22T10:43:05.059Z,1280
2018-12-22T10:44:05.296Z,1140
2018-12-22T10:45:05.283Z,1176
2018-12-22T10:46:05.271Z,1160
2018-12-22T10:47:05.257Z,1128
2018-12-22T10:48:05.256Z,1056
2018-12-22T10:49:05.239Z,996
2018-12-22T10:50:05.239Z,964
2018-12-22T10:51:05.220Z,884
2018-12-22T10:52:05.209Z,880
2018-12-22T10:53:05.197Z,840
2018-12-22T10:54:05.189Z,788
2018-12-22T10:55:05.180Z,748
2018-12-22T10:56:05.178Z,792
2018-12-22T10:57:06.560Z,920
2018-12-22T10:58:07.148Z,1008
2018-12-22T10:59:05.137Z,1092
2018-12-22T11:00:05.128Z,1144
2018-12-22T11:01:05.373Z,1360
2018-12-22T11:02:05.107Z,1684
2018-12-22T11:03:05.099Z,1720
2018-12-22T11:04:05.091Z,1688
2018-12-22T11:05:05.085Z,1700
2018-12-22T11:06:05.074Z,1548
2018-12-22T11:07:05.055Z,1484
2018-12-22T11:08:05.049Z,1532
2018-12-22T11:09:05.035Z,1496
2018-12-22T11:10:05.035Z,1520
2018-12-22T11:11:05.025Z,1536
2018-12-22T11:12:05.005Z,1524
2018-12-22T11:13:05.104Z,1440
2018-12-22T11:14:04.981Z,1464
2018-12-22T11:15:04.985Z,1412
2018-12-22T11:16:04.957Z,1480
2018-12-22T11:17:04.956Z,1584
2018-12-22T11:18:04.937Z,1736
2018-12-22T11:19:04.933Z,1872
2018-12-22T11:20:04.994Z,1800
2018-12-22T11:21:04.905Z,1732
2018-12-22T11:22:04.897Z,1700
2018-12-22T11:23:04.883Z,1608
2018-12-22T11:24:05.418Z,1636
2018-12-22T11:25:04.970Z,1592
2018-12-22T11:26:04.619Z,1688
2018-12-22T11:27:04.845Z,1800
2018-12-22T11:28:04.833Z,1624
2018-12-22T11:29:04.821Z,1812
2018-12-22T11:30:04.764Z,1796
2018-12-22T11:31:04.799Z,1648
2018-12-22T11:32:05.037Z,2004
2018-12-22T11:33:05.812Z,2208
2018-12-22T11:34:04.772Z,2040
2018-12-22T11:35:04.875Z,2024
2018-12-22T11:36:04.744Z,2084
2018-12-22T11:37:04.819Z,1996
2018-12-22T11:38:04.732Z,2284
2018-12-22T11:39:04.708Z,2820
2018-12-22T11:40:04.704Z,3064
2018-12-22T11:41:04.697Z,2928
2018-12-22T11:42:04.682Z,3064
2018-12-22T11:43:04.668Z,3588
2018-12-22T11:44:04.656Z,3768
2018-12-22T11:45:04.649Z,3808
2018-12-22T11:46:04.637Z,3720
2018-12-22T11:47:04.626Z,3740
2018-12-22T11:48:04.726Z,3996
2018-12-22T11:49:04.602Z,4576
2018-12-22T11:50:04.593Z,4748
2018-12-22T11:51:04.581Z,4900
2018-12-22T11:52:04.573Z,4860
2018-12-22T11:53:04.562Z,4876
2018-12-22T11:54:04.552Z,5028
2018-12-22T11:55:04.541Z,4988
2018-12-22T11:56:04.291Z,5028
2018-12-22T11:57:04.518Z,5352
2018-12-22T11:58:04.507Z,5364
2018-12-22T11:59:04.535Z,5176
2018-12-22T12:00:04.485Z,4828
2018-12-22T12:01:04.581Z,4732
2018-12-22T12:02:12.374Z,5008
2018-12-22T12:03:04.709Z,5064
2018-12-22T12:04:04.448Z,4820
2018-12-22T12:05:04.442Z,4836
2018-12-22T12:06:04.420Z,4988
2018-12-22T12:07:04.411Z,5048
2018-12-22T12:08:04.400Z,4736
2018-12-22T12:09:04.388Z,4364
2018-12-22T12:10:04.380Z,3828
2018-12-22T12:11:05.323Z,3360
2018-12-22T12:12:04.363Z,3344
2018-12-22T12:13:04.347Z,3596
2018-12-22T12:14:04.465Z,3912
2018-12-22T12:15:04.326Z,3984
2018-12-22T12:16:04.367Z,3916
2018-12-22T12:17:04.309Z,3948
2018-12-22T12:18:04.322Z,4036
2018-12-22T12:19:04.289Z,4116
2018-12-22T12:20:04.311Z,4228
2018-12-22T12:21:04.271Z,4396
2018-12-22T12:22:04.265Z,4604
2018-12-22T12:23:04.246Z,4840
2018-12-22T12:24:05.303Z,4896
2018-12-22T12:25:04.236Z,4924
2018-12-22T12:26:04.219Z,4904
2018-12-22T12:27:04.208Z,4856
2018-12-22T12:28:04.195Z,4752
2018-12-22T12:29:04.187Z,4496
2018-12-22T12:30:04.177Z,4272
2018-12-22T12:31:04.173Z,3948
2018-12-22T12:32:04.156Z,3524
2018-12-22T12:33:04.148Z,3084
2018-12-22T12:34:04.390Z,2776
2018-12-22T12:35:04.128Z,2560
2018-12-22T12:36:04.124Z,2352
2018-12-22T12:37:04.102Z,2316
2018-12-22T12:38:04.110Z,2332
2018-12-22T12:39:04.086Z,2096
2018-12-22T12:40:04.078Z,1880
2018-12-22T12:41:04.067Z,1644
2018-12-22T12:42:04.056Z,1532
2018-12-22T12:43:04.050Z,1376
2018-12-22T12:44:04.048Z,1304
2018-12-22T12:45:04.116Z,1328
2018-12-22T12:46:04.013Z,1260
2018-12-22T12:47:04.006Z,1140
2018-12-22T12:48:03.997Z,1156
2018-12-22T12:49:03.989Z,1156
2018-12-22T12:50:03.973Z,1092
2018-12-22T12:51:03.966Z,1044
2018-12-22T12:52:03.951Z,1040
2018-12-22T12:53:11.907Z,1024
2018-12-22T12:54:03.929Z,1044
2018-12-22T12:55:03.920Z,1120
2018-12-22T12:56:03.914Z,1188
2018-12-22T12:57:03.903Z,1264
2018-12-22T12:58:03.891Z,1388
2018-12-22T12:59:03.881Z,1560
2018-12-22T13:00:03.884Z,2104
2018-12-22T13:01:03.863Z,2644
2018-12-22T13:02:08.383Z,3052
2018-12-22T13:03:03.836Z,3236
2018-12-22T13:04:03.821Z,2984
2018-12-22T13:05:03.815Z,2792
2018-12-22T13:06:03.806Z,2588
2018-12-22T13:07:03.799Z,2388
2018-12-22T13:08:03.782Z,2164
2018-12-22T13:09:03.810Z,2112
2018-12-22T13:10:03.761Z,2132
2018-12-22T13:11:03.754Z,2080
2018-12-22T13:12:03.742Z,2300
2018-12-22T13:13:03.728Z,2684
2018-12-22T13:14:03.713Z,2828
2018-12-22T13:15:03.706Z,2620
2018-12-22T13:16:03.689Z,2500
2018-12-22T13:17:03.685Z,2772
2018-12-22T13:18:03.667Z,3052
2018-12-22T13:19:03.687Z,2960
2018-12-22T13:20:03.649Z,2696
2018-12-22T13:21:03.637Z,2592
2018-12-22T13:22:03.635Z,2640
2018-12-22T13:23:03.620Z,2712
2018-12-22T13:24:03.618Z,2808
2018-12-22T13:25:03.597Z,2664
2018-12-22T13:26:03.584Z,2500
2018-12-22T13:27:03.581Z,2432
2018-12-22T13:28:03.560Z,2616
2018-12-22T13:29:03.549Z,2720
2018-12-22T13:30:03.546Z,2656
2018-12-22T13:31:03.545Z,2392
2018-12-22T13:32:11.911Z,2100
2018-12-22T13:33:04.073Z,2008
2018-12-22T13:34:03.494Z,2020
2018-12-22T13:35:03.488Z,1924
2018-12-22T13:36:03.478Z,1964
2018-12-22T13:37:03.814Z,1860
2018-12-22T13:38:03.450Z,1772
2018-12-22T13:39:03.441Z,1708
2018-12-22T13:40:03.429Z,1660
2018-12-22T13:41:03.421Z,1652
2018-12-22T13:42:03.409Z,1548
2018-12-22T13:43:03.398Z,1568
2018-12-22T13:44:03.386Z,1564
2018-12-22T13:45:03.373Z,1656
2018-12-22T13:46:03.360Z,1576
2018-12-22T13:47:03.350Z,1488
2018-12-22T13:48:04.727Z,1568
2018-12-22T13:49:04.541Z,1564
2018-12-22T13:50:04.098Z,1532
2018-12-22T13:51:04.172Z,1360
2018-12-22T13:52:03.298Z,1224
2018-12-22T13:53:03.280Z,1184
2018-12-22T13:54:03.266Z,1140
2018-12-22T13:55:03.256Z,1064
2018-12-22T13:56:03.253Z,1096
2018-12-22T13:57:03.238Z,1180
2018-12-22T13:58:03.222Z,1300
2018-12-22T13:59:03.213Z,1372
2018-12-22T14:00:03.212Z,1200
2018-12-22T14:01:03.188Z,1124
2018-12-22T14:02:03.251Z,1348